sensor_id;sensor_type;location;lat;lon;timestamp;P1;durP1;ratioP1;P2;durP2;ratioP2
31348;SDS011;17976;48.480;11.946;2022-11-30T14:08:59;38.58;;;18.10;;
31348;SDS011;17976;48.480;11.946;2022-11-30T14:11:36;36.90;;;17.63;;
31348;SDS011;17976;48.480;11.946;2022-11-30T14:16:47;34.80;;;17.38;;
31348;SDS011;17976;48.480;11.946;2022-11-30T14:19:13;32.28;;;17.05;;
31348;SDS011;17976;48.480;11.946;2022-11-30T14:21:39;31.52;;;16.85;;
31348;SDS011;17976;48.480;11.946;2022-11-30T14:24:18;32.42;;;16.75;;
31348;SDS011;17976;48.480;11.946;2022-11-30T14:26:45;33.90;;;16.02;;
31348;SDS011;17976;48.480;11.946;2022-11-30T14:29:20;32.20;;;16.45;;
31348;SDS011;17976;48.480;11.946;2022-11-30T14:31:51;37.17;;;17.90;;
31348;SDS011;17976;48.480;11.946;2022-11-30T14:34:23;32.22;;;17.08;;
31348;SDS011;17976;48.480;11.946;2022-11-30T14:36:55;35.00;;;16.95;;
31348;SDS011;17976;48.480;11.946;2022-11-30T14:39:43;31.35;;;16.50;;
31348;SDS011;17976;48.480;11.946;2022-11-30T14:42:17;34.50;;;16.70;;
31348;SDS011;17976;48.480;11.946;2022-11-30T14:44:43;34.53;;;16.48;;
31348;SDS011;17976;48.480;11.946;2022-11-30T14:47:18;32.22;;;16.73;;
31348;SDS011;17976;48.480;11.946;2022-11-30T14:49:45;33.53;;;16.30;;
31348;SDS011;17976;48.480;11.946;2022-11-30T14:52:12;30.58;;;16.23;;
31348;SDS011;17976;48.480;11.946;2022-11-30T14:57:14;27.48;;;15.15;;
31348;SDS011;17976;48.480;11.946;2022-11-30T15:02:28;46.83;;;17.35;;
31348;SDS011;17976;48.480;11.946;2022-11-30T15:04:55;33.55;;;16.48;;
31348;SDS011;17976;48.480;11.946;2022-11-30T15:07:21;29.33;;;15.20;;
31348;SDS011;17976;48.480;11.946;2022-11-30T15:09:48;30.17;;;16.20;;
31348;SDS011;17976;48.480;11.946;2022-11-30T15:12:16;28.10;;;14.55;;
31348;SDS011;17976;48.480;11.946;2022-11-30T15:15:26;28.88;;;15.38;;
31348;SDS011;17976;48.480;11.946;2022-11-30T15:17:41;29.13;;;14.77;;
31348;SDS011;17976;48.480;11.946;2022-11-30T15:20:18;27.92;;;15.05;;
31348;SDS011;17976;48.480;11.946;2022-11-30T15:22:45;29.23;;;14.45;;
31348;SDS011;17976;48.480;11.946;2022-11-30T15:25:11;31.58;;;15.70;;
31348;SDS011;17976;48.480;11.946;2022-11-30T15:27:37;30.00;;;14.90;;
31348;SDS011;17976;48.480;11.946;2022-11-30T15:30:03;28.10;;;14.95;;
31348;SDS011;17976;48.480;11.946;2022-11-30T15:32:30;33.63;;;15.90;;
31348;SDS011;17976;48.480;11.946;2022-11-30T15:34:56;30.02;;;15.43;;
31348;SDS011;17976;48.480;11.946;2022-11-30T15:37:31;28.02;;;15.38;;
31348;SDS011;17976;48.480;11.946;2022-11-30T15:39:58;28.80;;;15.77;;
31348;SDS011;17976;48.480;11.946;2022-11-30T15:42:27;31.55;;;15.48;;
31348;SDS011;17976;48.480;11.946;2022-11-30T15:45:05;28.10;;;15.15;;
31348;SDS011;17976;48.480;11.946;2022-11-30T15:47:35;29.77;;;15.23;;
31348;SDS011;17976;48.480;11.946;2022-11-30T15:50:01;28.48;;;14.45;;
31348;SDS011;17976;48.480;11.946;2022-11-30T15:52:28;30.15;;;15.75;;
31348;SDS011;17976;48.480;11.946;2022-11-30T15:57:21;27.73;;;14.77;;
31348;SDS011;17976;48.480;11.946;2022-11-30T16:00:04;30.45;;;14.27;;
31348;SDS011;17976;48.480;11.946;2022-11-30T16:02:31;53.60;;;24.13;;
31348;SDS011;17976;48.480;11.946;2022-11-30T16:05:05;31.92;;;15.45;;
31348;SDS011;17976;48.480;11.946;2022-11-30T16:07:33;32.30;;;14.23;;
31348;SDS011;17976;48.480;11.946;2022-11-30T16:12:29;29.77;;;14.80;;
31348;SDS011;17976;48.480;11.946;2022-11-30T16:14:55;25.50;;;14.07;;
31348;SDS011;17976;48.480;11.946;2022-11-30T16:17:21;29.70;;;14.25;;
31348;SDS011;17976;48.480;11.946;2022-11-30T16:19:47;24.67;;;13.98;;
31348;SDS011;17976;48.480;11.946;2022-11-30T16:22:13;29.05;;;14.10;;
31348;SDS011;17976;48.480;11.946;2022-11-30T16:24:40;28.48;;;14.25;;
31348;SDS011;17976;48.480;11.946;2022-11-30T16:27:16;30.13;;;14.65;;
31348;SDS011;17976;48.480;11.946;2022-11-30T16:29:42;24.20;;;12.77;;
31348;SDS011;17976;48.480;11.946;2022-11-30T16:32:09;30.75;;;14.48;;
31348;SDS011;17976;48.480;11.946;2022-11-30T16:34:36;33.85;;;14.93;;
31348;SDS011;17976;48.480;11.946;2022-11-30T16:37:02;27.15;;;13.65;;
31348;SDS011;17976;48.480;11.946;2022-11-30T16:39:30;29.30;;;14.68;;
31348;SDS011;17976;48.480;11.946;2022-11-30T16:41:56;27.58;;;14.77;;
31348;SDS011;17976;48.480;11.946;2022-11-30T16:44:22;27.73;;;13.50;;
31348;SDS011;17976;48.480;11.946;2022-11-30T16:46:48;27.95;;;14.85;;
31348;SDS011;17976;48.480;11.946;2022-11-30T16:49:17;32.30;;;14.88;;
31348;SDS011;17976;48.480;11.946;2022-11-30T16:51:43;24.88;;;12.65;;
31348;SDS011;17976;48.480;11.946;2022-11-30T16:54:13;30.23;;;13.93;;
31348;SDS011;17976;48.480;11.946;2022-11-30T16:56:42;29.23;;;13.95;;
31348;SDS011;17976;48.480;11.946;2022-11-30T16:59:09;25.20;;;13.32;;
31348;SDS011;17976;48.480;11.946;2022-11-30T17:01:36;29.48;;;15.05;;
31348;SDS011;17976;48.480;11.946;2022-11-30T17:04:09;30.60;;;14.85;;
31348;SDS011;17976;48.480;11.946;2022-11-30T17:06:36;32.60;;;15.25;;
31348;SDS011;17976;48.480;11.946;2022-11-30T17:09:02;25.02;;;13.07;;
31348;SDS011;17976;48.480;11.946;2022-11-30T17:11:32;27.50;;;14.35;;
31348;SDS011;17976;48.480;11.946;2022-11-30T17:13:58;28.70;;;14.52;;
31348;SDS011;17976;48.480;11.946;2022-11-30T17:16:24;29.65;;;15.30;;
31348;SDS011;17976;48.480;11.946;2022-11-30T17:18:50;29.65;;;15.00;;
31348;SDS011;17976;48.480;11.946;2022-11-30T17:21:18;27.67;;;14.20;;
31348;SDS011;17976;48.480;11.946;2022-11-30T17:23:45;29.02;;;14.02;;
31348;SDS011;17976;48.480;11.946;2022-11-30T17:26:11;33.28;;;15.57;;
31348;SDS011;17976;48.480;11.946;2022-11-30T17:28:37;33.00;;;14.77;;
31348;SDS011;17976;48.480;11.946;2022-11-30T17:31:05;29.15;;;14.60;;
31348;SDS011;17976;48.480;11.946;2022-11-30T17:33:31;34.50;;;16.05;;
31348;SDS011;17976;48.480;11.946;2022-11-30T17:35:57;30.60;;;15.18;;
31348;SDS011;17976;48.480;11.946;2022-11-30T17:38:24;29.83;;;15.20;;
31348;SDS011;17976;48.480;11.946;2022-11-30T17:40:51;29.40;;;14.57;;
31348;SDS011;17976;48.480;11.946;2022-11-30T17:43:17;34.55;;;15.27;;
31348;SDS011;17976;48.480;11.946;2022-11-30T17:45:43;30.73;;;14.70;;
31348;SDS011;17976;48.480;11.946;2022-11-30T17:48:09;32.15;;;15.18;;
31348;SDS011;17976;48.480;11.946;2022-11-30T17:50:38;31.98;;;15.15;;
31348;SDS011;17976;48.480;11.946;2022-11-30T17:53:04;31.35;;;15.32;;
31348;SDS011;17976;48.480;11.946;2022-11-30T17:55:31;35.00;;;16.58;;
31348;SDS011;17976;48.480;11.946;2022-11-30T17:57:57;36.47;;;16.77;;
31348;SDS011;17976;48.480;11.946;2022-11-30T18:00:23;32.83;;;15.57;;
31348;SDS011;17976;48.480;11.946;2022-11-30T18:02:49;32.45;;;15.27;;
31348;SDS011;17976;48.480;11.946;2022-11-30T18:05:18;31.38;;;14.65;;
31348;SDS011;17976;48.480;11.946;2022-11-30T18:07:45;32.53;;;15.35;;
31348;SDS011;17976;48.480;11.946;2022-11-30T18:10:11;32.15;;;16.80;;
31348;SDS011;17976;48.480;11.946;2022-11-30T18:12:37;34.40;;;15.52;;
31348;SDS011;17976;48.480;11.946;2022-11-30T18:15:03;39.65;;;16.60;;
31348;SDS011;17976;48.480;11.946;2022-11-30T18:17:32;32.92;;;16.48;;
31348;SDS011;17976;48.480;11.946;2022-11-30T18:19:58;38.53;;;16.55;;
31348;SDS011;17976;48.480;11.946;2022-11-30T18:22:24;30.50;;;14.88;;
31348;SDS011;17976;48.480;11.946;2022-11-30T18:24:50;32.33;;;16.27;;
31348;SDS011;17976;48.480;11.946;2022-11-30T18:27:16;31.38;;;15.10;;
31348;SDS011;17976;48.480;11.946;2022-11-30T18:29:42;35.65;;;15.32;;
31348;SDS011;17976;48.480;11.946;2022-11-30T18:32:08;35.47;;;17.27;;
31348;SDS011;17976;48.480;11.946;2022-11-30T18:34:34;30.20;;;14.85;;
31348;SDS011;17976;48.480;11.946;2022-11-30T18:37:00;33.72;;;16.58;;
31348;SDS011;17976;48.480;11.946;2022-11-30T18:39:26;35.47;;;17.23;;
31348;SDS011;17976;48.480;11.946;2022-11-30T18:41:52;34.38;;;15.82;;
31348;SDS011;17976;48.480;11.946;2022-11-30T18:44:18;32.88;;;15.98;;
31348;SDS011;17976;48.480;11.946;2022-11-30T18:46:44;40.13;;;16.50;;
31348;SDS011;17976;48.480;11.946;2022-11-30T18:49:10;35.30;;;16.10;;
31348;SDS011;17976;48.480;11.946;2022-11-30T18:51:36;36.80;;;16.80;;
31348;SDS011;17976;48.480;11.946;2022-11-30T18:54:03;33.53;;;16.35;;
31348;SDS011;17976;48.480;11.946;2022-11-30T18:56:30;33.63;;;16.05;;
31348;SDS011;17976;48.480;11.946;2022-11-30T18:58:58;37.28;;;17.48;;
31348;SDS011;17976;48.480;11.946;2022-11-30T19:01:24;39.10;;;18.65;;
31348;SDS011;17976;48.480;11.946;2022-11-30T19:03:54;35.97;;;17.45;;
31348;SDS011;17976;48.480;11.946;2022-11-30T19:06:20;32.42;;;16.75;;
31348;SDS011;17976;48.480;11.946;2022-11-30T19:08:48;34.47;;;16.88;;
31348;SDS011;17976;48.480;11.946;2022-11-30T19:11:15;34.95;;;17.63;;
31348;SDS011;17976;48.480;11.946;2022-11-30T19:13:41;30.92;;;16.02;;
31348;SDS011;17976;48.480;11.946;2022-11-30T19:16:08;33.85;;;17.13;;
31348;SDS011;17976;48.480;11.946;2022-11-30T19:18:35;37.95;;;17.58;;
31348;SDS011;17976;48.480;11.946;2022-11-30T19:21:05;35.80;;;17.15;;
31348;SDS011;17976;48.480;11.946;2022-11-30T19:23:31;38.25;;;16.83;;
31348;SDS011;17976;48.480;11.946;2022-11-30T19:26:00;34.20;;;17.15;;
31348;SDS011;17976;48.480;11.946;2022-11-30T19:28:29;35.15;;;17.25;;
31348;SDS011;17976;48.480;11.946;2022-11-30T19:30:56;37.70;;;17.73;;
31348;SDS011;17976;48.480;11.946;2022-11-30T19:33:22;34.80;;;17.95;;
31348;SDS011;17976;48.480;11.946;2022-11-30T19:35:48;40.75;;;18.63;;
31348;SDS011;17976;48.480;11.946;2022-11-30T19:38:14;41.50;;;18.40;;
31348;SDS011;17976;48.480;11.946;2022-11-30T19:40:40;44.60;;;19.65;;
31348;SDS011;17976;48.480;11.946;2022-11-30T19:43:06;37.90;;;17.50;;
31348;SDS011;17976;48.480;11.946;2022-11-30T19:45:35;41.00;;;18.90;;
31348;SDS011;17976;48.480;11.946;2022-11-30T19:48:01;42.78;;;19.02;;
31348;SDS011;17976;48.480;11.946;2022-11-30T19:50:27;39.22;;;17.88;;
31348;SDS011;17976;48.480;11.946;2022-11-30T19:52:53;40.08;;;19.25;;
31348;SDS011;17976;48.480;11.946;2022-11-30T19:55:19;40.53;;;19.10;;
31348;SDS011;17976;48.480;11.946;2022-11-30T19:57:45;42.30;;;20.20;;
31348;SDS011;17976;48.480;11.946;2022-11-30T20:00:11;35.38;;;17.70;;
31348;SDS011;17976;48.480;11.946;2022-11-30T20:02:37;41.25;;;19.38;;
31348;SDS011;17976;48.480;11.946;2022-11-30T20:05:03;37.08;;;18.17;;
31348;SDS011;17976;48.480;11.946;2022-11-30T20:07:29;37.60;;;18.70;;
31348;SDS011;17976;48.480;11.946;2022-11-30T20:09:55;46.15;;;20.08;;
31348;SDS011;17976;48.480;11.946;2022-11-30T20:12:21;42.65;;;19.67;;
31348;SDS011;17976;48.480;11.946;2022-11-30T20:14:47;46.03;;;21.40;;
31348;SDS011;17976;48.480;11.946;2022-11-30T20:17:14;40.25;;;20.20;;
31348;SDS011;17976;48.480;11.946;2022-11-30T20:19:40;44.33;;;20.20;;
31348;SDS011;17976;48.480;11.946;2022-11-30T20:22:06;44.60;;;20.85;;
31348;SDS011;17976;48.480;11.946;2022-11-30T20:24:33;45.38;;;22.08;;
31348;SDS011;17976;48.480;11.946;2022-11-30T20:26:59;45.50;;;19.77;;
31348;SDS011;17976;48.480;11.946;2022-11-30T20:29:27;41.38;;;20.25;;
31348;SDS011;17976;48.480;11.946;2022-11-30T20:31:53;44.97;;;20.23;;
31348;SDS011;17976;48.480;11.946;2022-11-30T20:34:19;45.20;;;20.88;;
31348;SDS011;17976;48.480;11.946;2022-11-30T20:36:45;46.05;;;19.75;;
31348;SDS011;17976;48.480;11.946;2022-11-30T20:39:11;44.50;;;21.17;;
31348;SDS011;17976;48.480;11.946;2022-11-30T20:41:38;41.97;;;20.55;;
31348;SDS011;17976;48.480;11.946;2022-11-30T20:44:04;44.28;;;19.95;;
31348;SDS011;17976;48.480;11.946;2022-11-30T20:46:31;45.28;;;21.13;;
31348;SDS011;17976;48.480;11.946;2022-11-30T20:48:57;46.63;;;20.67;;
31348;SDS011;17976;48.480;11.946;2022-11-30T20:51:28;47.35;;;21.15;;
31348;SDS011;17976;48.480;11.946;2022-11-30T20:53:54;49.75;;;20.88;;
31348;SDS011;17976;48.480;11.946;2022-11-30T20:56:20;46.10;;;21.88;;
31348;SDS011;17976;48.480;11.946;2022-11-30T20:58:47;47.00;;;21.65;;
